Weather observations for the past three days for
Las Vegas - Henderson Executive Airport
Imperial (Metric)
Date Time (pdt) Wind (mph) Vis. (mi.) Weather Sky Cond. Temperature (ºF) Relative Humidity Wind Chill (°F) Heat Index (°F) Pressure Precipitation (in)
Air Dwpt 6 hour altimeter (in) sea level (mb) 1 hr 3 hr 6 hr
Max. Min.
09 01:56 S 15 10.00 Fair CLR 81 33.1 18% 79 29.87 1009.7
09 00:56 S 12 10.00 Fair CLR 82 30 15% 80 29.87 1009.8
08 23:56 SW 14 10.00 Fair CLR 81 21.9 11% 79 29.86 1009.7
08 22:56 S 10 10.00 Fair CLR 82.9 21.9 99 82.9 10% 80 29.86 1009.4
08 21:56 S 9 10.00 Fair CLR 84.9 23 10% 82 29.85 1009.5
08 20:56 W 7 10.00 Fair CLR 90 23 9% 86 29.84 1009.0
08 19:56 W 10 10.00 Fair CLR 91 25 9% 87 29.83 1008.6
08 18:56 SW 12 10.00 Fair CLR 93.9 25 8% 89 29.82 1008.2
08 17:56 W 10 10.00 Fair CLR 97 26.1 8% 92 29.82 1008.2
08 16:56 W 14 G 20 9.00 Fair CLR 98.1 27 99 90 8% 93 29.83 1008.5
08 15:56 Vrbl 3 10.00 Fair CLR 97 24.1 7% 92 29.84 1008.9
08 14:56 Vrbl 3 10.00 Fair CLR 97 28.9 9% 92 29.86 1009.5
08 13:56 N 9 10.00 Fair CLR 96.1 28.9 9% 91 29.88 1010.4
08 12:56 W 5 10.00 Fair CLR 93.9 28 9% 89 29.92 1011.6
08 11:56 Calm 10.00 Fair CLR 93 30 10% 88 29.94 1012.2
08 10:56 Vrbl 3 10.00 Fair CLR 90 30.9 91 70 12% 86 29.95 1012.8
08 09:56 Calm 10.00 Fair CLR 87.1 30.9 13% 83 29.96 1013.0
08 08:56 SW 10 10.00 Fair CLR 84 36 18% 81 29.95 1012.9
08 07:56 SW 12 10.00 Fair CLR 79 36 21% 78 29.95 1013.0
08 06:56 S 9 10.00 Fair CLR 73.9 35.1 24% 29.94 1012.7
08 05:56 SW 15 10.00 Fair CLR 71.1 34 26% 29.92 1012.0
08 04:56 S 9 10.00 Fair CLR 70 30 78.1 70 23% 29.91 1011.7
08 03:56 S 7 10.00 Fair CLR 72 27 19% 29.91 1011.6
08 02:56 SW 8 10.00 Fair CLR 73.9 26.1 17% 29.9 1011.4
08 01:56 S 9 10.00 Fair CLR 75.9 24.1 14% 76 29.89 1011.0
08 00:56 S 9 10.00 Fair CLR 75 21 13% 75 29.9 1011.4
07 23:56 S 6 10.00 Fair CLR 77 21.9 13% 76 29.9 1011.4
07 22:56 S 10 10.00 Fair CLR 78.1 23 91.9 78.1 13% 77 29.9 1011.3
07 21:56 S 12 10.00 Fair CLR 82 26.1 13% 80 29.9 1011.3
07 20:56 S 10 10.00 Fair CLR 82.9 27 13% 80 29.89 1011.1
07 19:56 SW 3 10.00 Fair CLR 87.1 27 11% 84 29.88 1010.6
07 18:56 E 8 10.00 Fair CLR 90 28 11% 86 29.86 1010.3
07 17:56 N 3 10.00 Fair CLR 91 28 10% 87 29.87 1010.5
07 16:56 N 7 10.00 Fair CLR 91 27 91.9 82 10% 87 29.88 1010.9
07 15:56 NE 8 10.00 Fair CLR 91.9 27 10% 88 29.89 1011.3
07 14:56 N 6 10.00 Fair CLR 89.1 27 11% 85 29.93 1012.6
07 13:56 Vrbl 3 10.00 Fair CLR 89.1 26.1 10% 85 29.96 1013.7
07 12:56 Calm 10.00 Fair CLR 87.1 26.1 11% 84 29.99 1014.7
07 11:56 Calm 10.00 Fair CLR 84.9 21.9 10% 82 30.02 1015.8
07 10:56 NE 7 10.00 Fair CLR 82 19.9 82 59 10% 80 30.05 1016.6
07 09:56 Vrbl 5 10.00 Fair CLR 79 23 12% 78 30.06 1017.0
07 08:56 Calm 10.00 Fair CLR 75.9 25 15% 76 30.07 1017.4
07 07:56 SW 3 10.00 Fair CLR 72 27 19% 30.07 1017.6
07 06:56 S 5 10.00 Fair CLR 64.9 30.9 28% 30.07 1017.7
07 05:56 S 7 10.00 Fair CLR 60.1 30.9 33% 30.05 1017.3
07 04:56 S 7 10.00 Fair CLR 61 30 73 61 31% 30.04 1017.1
07 03:56 SE 6 10.00 Fair CLR 63 33.1 33% 30.04 1017.0
07 02:56 S 8 10.00 Fair CLR 64.9 33.1 31% 30.04 1016.7
07 01:56 S 8 10.00 Fair CLR 66 32 28% 30.04 1016.9
07 00:56 Calm 10.00 Fair CLR 71.1 33.1 25% 30.04 1016.8
06 23:56 S 7 10.00 Fair CLR 69.1 30 23% 30.02 1016.3
06 22:56 S 8 10.00 Fair CLR 73.9 30 84 71.1 20% 30.01 1015.6
06 21:56 S 7 10.00 Fair CLR 73.9 30 20% 30 1015.3
06 20:56 S 5 10.00 Fair CLR 77 30.9 18% 77 29.98 1014.8
06 19:56 Calm 10.00 Fair CLR 82 32 16% 80 29.96 1013.9
06 18:56 SE 3 10.00 Fair CLR 82 32 16% 80 29.95 1013.7
06 17:56 Calm 10.00 Fair CLR 82.9 33.1 17% 80 29.95 1013.8
06 16:56 N 7 10.00 Fair CLR 82.9 34 84 73.9 17% 80 29.95 1013.8
06 15:56 E 6 10.00 Fair CLR 82.9 34 17% 80 29.97 1014.3
06 14:56 E 9 10.00 Fair CLR 82 35.1 18% 80 29.99 1015.1
06 13:56 Vrbl 6 10.00 Fair CLR 79 35.1 20% 78 30.01 1015.9
06 12:56 Vrbl 3 10.00 Fair CLR 77 36 23% 77 30.02 1016.3
06 11:56 Calm 10.00 Fair CLR 77 36 23% 77 30.03 1016.7
06 10:56 W 8 10.00 Fair CLR 75 35.1 75 57 23% 76 30.04 1016.9
06 09:56 Calm 10.00 Fair CLR 72 35.1 26% 30.04 1016.9
06 08:56 S 8 10.00 Fair CLR 69.1 36 30% 30.03 1016.7
06 07:56 SW 10 10.00 Fair CLR 64.9 37.9 37% 30.02 1016.5
06 06:56 SW 10 10.00 Fair CLR 60.1 37 42% 30 1016.1
06 05:56 SW 9 10.00 Fair CLR 57 36 45% 29.98 1015.4
06 04:56 SW 13 10.00 Fair CLR 57.9 36 66 57.9 44% 29.96 1014.8
06 03:56 S 12 10.00 Fair CLR 61 36 39% 29.95 1014.0
06 02:56 S 17 10.00 Fair CLR 62.1 35.1 37% 29.93 1013.4
Date Time (pdt) Wind (mph) Vis. (mi.) Weather Sky Cond. Air Dwpt Max. Min. Relative Humidity Wind Chill (°F) Heat Index (°F) altimeter (in) sea level (mb) 1 hr 3 hr 6 hr
6 hour
Temperature (ºF) Pressure Precipitation (in)